sensor_id;sensor_type;location;lat;lon;timestamp;P1;durP1;ratioP1;P2;durP2;ratioP2
16119;SDS011;12670;53.502;10.252;2023-08-07T00:02:34;9.73;;;2.50;;
16119;SDS011;12670;53.502;10.252;2023-08-07T00:05:37;9.17;;;2.87;;
16119;SDS011;12670;53.502;10.252;2023-08-07T00:08:40;6.10;;;2.83;;
16119;SDS011;12670;53.502;10.252;2023-08-07T00:11:42;5.17;;;2.60;;
16119;SDS011;12670;53.502;10.252;2023-08-07T00:14:46;5.13;;;2.93;;
16119;SDS011;12670;53.502;10.252;2023-08-07T00:17:50;10.90;;;3.10;;
16119;SDS011;12670;53.502;10.252;2023-08-07T00:20:53;6.60;;;2.97;;
16119;SDS011;12670;53.502;10.252;2023-08-07T00:23:56;6.33;;;2.50;;
16119;SDS011;12670;53.502;10.252;2023-08-07T00:26:59;5.57;;;2.97;;
16119;SDS011;12670;53.502;10.252;2023-08-07T00:30:01;5.73;;;3.00;;
16119;SDS011;12670;53.502;10.252;2023-08-07T00:33:06;7.73;;;3.00;;
16119;SDS011;12670;53.502;10.252;2023-08-07T00:36:08;6.67;;;3.17;;
16119;SDS011;12670;53.502;10.252;2023-08-07T00:39:11;6.37;;;2.97;;
16119;SDS011;12670;53.502;10.252;2023-08-07T00:42:14;10.93;;;3.17;;
16119;SDS011;12670;53.502;10.252;2023-08-07T00:45:17;5.13;;;2.97;;
16119;SDS011;12670;53.502;10.252;2023-08-07T00:48:21;5.07;;;3.00;;
16119;SDS011;12670;53.502;10.252;2023-08-07T00:51:24;6.67;;;2.80;;
16119;SDS011;12670;53.502;10.252;2023-08-07T00:54:26;7.57;;;2.90;;
16119;SDS011;12670;53.502;10.252;2023-08-07T00:57:30;7.23;;;2.40;;
16119;SDS011;12670;53.502;10.252;2023-08-07T01:00:33;9.33;;;2.70;;
16119;SDS011;12670;53.502;10.252;2023-08-07T01:03:38;5.60;;;2.80;;
16119;SDS011;12670;53.502;10.252;2023-08-07T01:06:40;8.90;;;2.63;;
16119;SDS011;12670;53.502;10.252;2023-08-07T01:09:43;4.03;;;2.70;;
16119;SDS011;12670;53.502;10.252;2023-08-07T01:12:48;12.10;;;3.10;;
16119;SDS011;12670;53.502;10.252;2023-08-07T01:15:58;3.20;;;2.20;;
16119;SDS011;12670;53.502;10.252;2023-08-07T01:19:05;5.13;;;2.40;;
16119;SDS011;12670;53.502;10.252;2023-08-07T01:22:16;6.60;;;2.30;;
16119;SDS011;12670;53.502;10.252;2023-08-07T01:25:19;5.20;;;2.30;;
16119;SDS011;12670;53.502;10.252;2023-08-07T01:28:24;5.83;;;2.17;;
16119;SDS011;12670;53.502;10.252;2023-08-07T01:31:29;6.50;;;2.33;;
16119;SDS011;12670;53.502;10.252;2023-08-07T01:34:35;7.13;;;2.40;;
16119;SDS011;12670;53.502;10.252;2023-08-07T01:37:44;7.80;;;2.30;;
16119;SDS011;12670;53.502;10.252;2023-08-07T01:40:47;5.53;;;2.37;;
16119;SDS011;12670;53.502;10.252;2023-08-07T01:43:52;3.27;;;1.90;;
16119;SDS011;12670;53.502;10.252;2023-08-07T01:46:56;5.07;;;2.50;;
16119;SDS011;12670;53.502;10.252;2023-08-07T01:49:59;7.77;;;2.00;;
16119;SDS011;12670;53.502;10.252;2023-08-07T01:53:03;7.57;;;2.27;;
16119;SDS011;12670;53.502;10.252;2023-08-07T01:56:06;7.80;;;2.27;;
16119;SDS011;12670;53.502;10.252;2023-08-07T01:59:09;9.30;;;2.40;;
16119;SDS011;12670;53.502;10.252;2023-08-07T02:02:11;8.60;;;2.40;;
16119;SDS011;12670;53.502;10.252;2023-08-07T02:05:14;9.23;;;2.17;;
16119;SDS011;12670;53.502;10.252;2023-08-07T02:08:18;8.23;;;2.27;;
16119;SDS011;12670;53.502;10.252;2023-08-07T02:11:21;5.37;;;2.37;;
16119;SDS011;12670;53.502;10.252;2023-08-07T02:14:24;3.47;;;2.10;;
16119;SDS011;12670;53.502;10.252;2023-08-07T02:17:27;6.30;;;2.30;;
16119;SDS011;12670;53.502;10.252;2023-08-07T02:20:31;11.70;;;2.07;;
16119;SDS011;12670;53.502;10.252;2023-08-07T02:23:35;13.03;;;2.20;;
16119;SDS011;12670;53.502;10.252;2023-08-07T02:26:38;6.93;;;2.37;;
16119;SDS011;12670;53.502;10.252;2023-08-07T02:29:40;5.53;;;2.10;;
16119;SDS011;12670;53.502;10.252;2023-08-07T02:32:43;7.97;;;2.13;;
16119;SDS011;12670;53.502;10.252;2023-08-07T02:35:47;12.57;;;2.17;;
16119;SDS011;12670;53.502;10.252;2023-08-07T02:38:53;3.50;;;1.80;;
16119;SDS011;12670;53.502;10.252;2023-08-07T02:41:56;4.07;;;2.00;;
16119;SDS011;12670;53.502;10.252;2023-08-07T02:44:58;9.40;;;3.00;;
16119;SDS011;12670;53.502;10.252;2023-08-07T02:48:01;3.43;;;1.93;;
16119;SDS011;12670;53.502;10.252;2023-08-07T02:51:05;7.70;;;2.07;;
16119;SDS011;12670;53.502;10.252;2023-08-07T02:54:09;4.43;;;2.10;;
16119;SDS011;12670;53.502;10.252;2023-08-07T02:57:11;6.33;;;2.00;;
16119;SDS011;12670;53.502;10.252;2023-08-07T03:00:14;7.17;;;2.37;;
16119;SDS011;12670;53.502;10.252;2023-08-07T03:03:17;6.53;;;2.40;;
16119;SDS011;12670;53.502;10.252;2023-08-07T03:06:19;11.10;;;2.40;;
16119;SDS011;12670;53.502;10.252;2023-08-07T03:09:23;11.33;;;2.33;;
16119;SDS011;12670;53.502;10.252;2023-08-07T03:12:26;6.27;;;1.80;;
16119;SDS011;12670;53.502;10.252;2023-08-07T03:15:29;5.43;;;1.90;;
16119;SDS011;12670;53.502;10.252;2023-08-07T03:18:32;3.27;;;1.93;;
16119;SDS011;12670;53.502;10.252;2023-08-07T03:21:35;4.97;;;1.70;;
16119;SDS011;12670;53.502;10.252;2023-08-07T03:24:40;3.17;;;2.07;;
16119;SDS011;12670;53.502;10.252;2023-08-07T03:27:42;6.40;;;2.10;;
16119;SDS011;12670;53.502;10.252;2023-08-07T03:30:45;4.80;;;2.07;;
16119;SDS011;12670;53.502;10.252;2023-08-07T03:33:48;8.07;;;2.30;;
16119;SDS011;12670;53.502;10.252;2023-08-07T03:36:50;4.67;;;2.10;;
16119;SDS011;12670;53.502;10.252;2023-08-07T03:39:55;2.70;;;1.90;;
16119;SDS011;12670;53.502;10.252;2023-08-07T03:42:58;9.77;;;2.27;;
16119;SDS011;12670;53.502;10.252;2023-08-07T03:46:00;8.90;;;2.27;;
16119;SDS011;12670;53.502;10.252;2023-08-07T03:49:05;4.27;;;1.80;;
16119;SDS011;12670;53.502;10.252;2023-08-07T03:52:08;5.13;;;2.00;;
16119;SDS011;12670;53.502;10.252;2023-08-07T03:55:12;5.47;;;1.93;;
16119;SDS011;12670;53.502;10.252;2023-08-07T03:58:15;5.67;;;2.20;;
16119;SDS011;12670;53.502;10.252;2023-08-07T04:01:18;2.90;;;1.80;;
16119;SDS011;12670;53.502;10.252;2023-08-07T04:04:21;4.27;;;2.40;;
16119;SDS011;12670;53.502;10.252;2023-08-07T04:07:23;5.70;;;2.20;;
16119;SDS011;12670;53.502;10.252;2023-08-07T04:10:27;10.97;;;2.53;;
16119;SDS011;12670;53.502;10.252;2023-08-07T04:13:30;5.97;;;2.10;;
16119;SDS011;12670;53.502;10.252;2023-08-07T04:16:33;3.30;;;1.90;;
16119;SDS011;12670;53.502;10.252;2023-08-07T04:19:36;6.37;;;2.20;;
16119;SDS011;12670;53.502;10.252;2023-08-07T04:22:38;8.13;;;2.40;;
16119;SDS011;12670;53.502;10.252;2023-08-07T04:25:42;7.13;;;2.40;;
16119;SDS011;12670;53.502;10.252;2023-08-07T04:28:45;6.77;;;2.43;;
16119;SDS011;12670;53.502;10.252;2023-08-07T04:31:48;5.70;;;2.37;;
16119;SDS011;12670;53.502;10.252;2023-08-07T04:34:50;6.97;;;2.27;;
16119;SDS011;12670;53.502;10.252;2023-08-07T04:37:53;7.20;;;2.40;;
16119;SDS011;12670;53.502;10.252;2023-08-07T04:40:57;8.43;;;2.10;;
16119;SDS011;12670;53.502;10.252;2023-08-07T04:44:00;7.10;;;2.60;;
16119;SDS011;12670;53.502;10.252;2023-08-07T04:47:03;5.73;;;2.23;;
16119;SDS011;12670;53.502;10.252;2023-08-07T04:50:06;5.87;;;2.27;;
16119;SDS011;12670;53.502;10.252;2023-08-07T04:53:11;3.90;;;2.10;;
16119;SDS011;12670;53.502;10.252;2023-08-07T04:56:15;10.40;;;2.00;;
16119;SDS011;12670;53.502;10.252;2023-08-07T04:59:17;6.30;;;2.20;;
16119;SDS011;12670;53.502;10.252;2023-08-07T05:02:20;8.17;;;2.17;;
16119;SDS011;12670;53.502;10.252;2023-08-07T05:05:23;7.77;;;2.67;;
16119;SDS011;12670;53.502;10.252;2023-08-07T05:08:26;10.43;;;2.90;;
16119;SDS011;12670;53.502;10.252;2023-08-07T05:11:30;9.63;;;2.20;;
16119;SDS011;12670;53.502;10.252;2023-08-07T05:14:32;5.83;;;2.57;;
16119;SDS011;12670;53.502;10.252;2023-08-07T05:17:35;8.73;;;2.60;;
16119;SDS011;12670;53.502;10.252;2023-08-07T05:20:38;8.10;;;2.50;;
16119;SDS011;12670;53.502;10.252;2023-08-07T05:23:41;13.93;;;2.87;;
16119;SDS011;12670;53.502;10.252;2023-08-07T05:26:45;7.87;;;2.33;;
16119;SDS011;12670;53.502;10.252;2023-08-07T05:29:48;5.20;;;2.30;;
16119;SDS011;12670;53.502;10.252;2023-08-07T05:32:50;8.43;;;2.70;;
16119;SDS011;12670;53.502;10.252;2023-08-07T05:35:53;9.50;;;2.60;;
16119;SDS011;12670;53.502;10.252;2023-08-07T05:38:56;8.80;;;3.03;;
16119;SDS011;12670;53.502;10.252;2023-08-07T05:42:00;6.63;;;2.43;;
16119;SDS011;12670;53.502;10.252;2023-08-07T05:45:03;8.80;;;3.03;;
16119;SDS011;12670;53.502;10.252;2023-08-07T05:48:07;4.90;;;2.37;;
16119;SDS011;12670;53.502;10.252;2023-08-07T05:51:10;10.33;;;2.90;;
16119;SDS011;12670;53.502;10.252;2023-08-07T05:54:13;6.77;;;2.43;;
16119;SDS011;12670;53.502;10.252;2023-08-07T05:57:17;4.73;;;2.70;;
16119;SDS011;12670;53.502;10.252;2023-08-07T06:00:20;8.33;;;2.40;;
16119;SDS011;12670;53.502;10.252;2023-08-07T06:03:23;8.40;;;2.63;;
16119;SDS011;12670;53.502;10.252;2023-08-07T06:06:25;6.10;;;2.33;;
16119;SDS011;12670;53.502;10.252;2023-08-07T06:09:29;11.57;;;2.60;;
16119;SDS011;12670;53.502;10.252;2023-08-07T06:12:33;14.57;;;2.63;;
16119;SDS011;12670;53.502;10.252;2023-08-07T06:15:37;12.00;;;2.50;;
16119;SDS011;12670;53.502;10.252;2023-08-07T06:18:39;11.03;;;2.70;;
16119;SDS011;12670;53.502;10.252;2023-08-07T06:21:42;8.30;;;2.50;;
16119;SDS011;12670;53.502;10.252;2023-08-07T06:24:45;7.47;;;2.53;;
16119;SDS011;12670;53.502;10.252;2023-08-07T06:27:50;9.87;;;2.60;;
16119;SDS011;12670;53.502;10.252;2023-08-07T06:30:52;9.20;;;2.43;;
16119;SDS011;12670;53.502;10.252;2023-08-07T06:33:55;16.17;;;2.70;;
16119;SDS011;12670;53.502;10.252;2023-08-07T06:36:58;7.83;;;2.33;;
16119;SDS011;12670;53.502;10.252;2023-08-07T06:40:00;10.47;;;2.70;;
16119;SDS011;12670;53.502;10.252;2023-08-07T06:43:05;11.37;;;2.73;;
16119;SDS011;12670;53.502;10.252;2023-08-07T06:46:07;9.07;;;2.73;;
16119;SDS011;12670;53.502;10.252;2023-08-07T06:49:11;10.60;;;2.50;;
16119;SDS011;12670;53.502;10.252;2023-08-07T06:52:14;13.93;;;3.20;;
16119;SDS011;12670;53.502;10.252;2023-08-07T06:55:17;8.90;;;2.53;;
16119;SDS011;12670;53.502;10.252;2023-08-07T06:58:21;11.33;;;2.63;;
16119;SDS011;12670;53.502;10.252;2023-08-07T07:01:24;19.63;;;2.73;;
16119;SDS011;12670;53.502;10.252;2023-08-07T07:04:27;15.57;;;3.33;;
16119;SDS011;12670;53.502;10.252;2023-08-07T07:07:29;16.10;;;3.10;;
16119;SDS011;12670;53.502;10.252;2023-08-07T07:10:32;9.80;;;2.50;;
16119;SDS011;12670;53.502;10.252;2023-08-07T07:13:36;12.57;;;3.17;;
16119;SDS011;12670;53.502;10.252;2023-08-07T07:16:39;12.27;;;2.77;;
16119;SDS011;12670;53.502;10.252;2023-08-07T07:19:43;13.80;;;3.00;;
16119;SDS011;12670;53.502;10.252;2023-08-07T07:22:46;13.13;;;2.87;;
16119;SDS011;12670;53.502;10.252;2023-08-07T07:25:48;15.47;;;3.07;;
16119;SDS011;12670;53.502;10.252;2023-08-07T07:28:52;9.03;;;2.77;;
16119;SDS011;12670;53.502;10.252;2023-08-07T07:31:55;14.50;;;3.00;;
16119;SDS011;12670;53.502;10.252;2023-08-07T07:34:58;18.10;;;3.73;;
16119;SDS011;12670;53.502;10.252;2023-08-07T07:38:01;12.57;;;2.67;;
16119;SDS011;12670;53.502;10.252;2023-08-07T07:41:04;17.17;;;3.10;;
16119;SDS011;12670;53.502;10.252;2023-08-07T07:44:12;15.27;;;3.20;;
16119;SDS011;12670;53.502;10.252;2023-08-07T07:47:15;15.30;;;2.97;;
16119;SDS011;12670;53.502;10.252;2023-08-07T07:50:18;15.97;;;3.57;;
16119;SDS011;12670;53.502;10.252;2023-08-07T07:53:20;17.77;;;3.40;;
16119;SDS011;12670;53.502;10.252;2023-08-07T07:56:26;19.50;;;3.60;;
16119;SDS011;12670;53.502;10.252;2023-08-07T07:59:30;15.03;;;3.20;;
16119;SDS011;12670;53.502;10.252;2023-08-07T08:02:32;14.70;;;3.40;;
16119;SDS011;12670;53.502;10.252;2023-08-07T08:05:35;15.30;;;3.90;;
16119;SDS011;12670;53.502;10.252;2023-08-07T08:08:38;13.73;;;3.30;;
16119;SDS011;12670;53.502;10.252;2023-08-07T08:11:43;12.00;;;3.50;;
16119;SDS011;12670;53.502;10.252;2023-08-07T08:14:47;13.93;;;3.40;;
16119;SDS011;12670;53.502;10.252;2023-08-07T08:17:56;15.40;;;3.50;;
16119;SDS011;12670;53.502;10.252;2023-08-07T08:20:59;12.00;;;3.10;;
16119;SDS011;12670;53.502;10.252;2023-08-07T08:24:02;12.93;;;3.10;;
16119;SDS011;12670;53.502;10.252;2023-08-07T08:27:06;9.60;;;2.93;;
16119;SDS011;12670;53.502;10.252;2023-08-07T08:30:10;10.53;;;2.50;;
16119;SDS011;12670;53.502;10.252;2023-08-07T08:33:13;11.40;;;2.60;;
16119;SDS011;12670;53.502;10.252;2023-08-07T08:36:16;10.23;;;2.83;;
16119;SDS011;12670;53.502;10.252;2023-08-07T08:39:18;14.27;;;2.77;;
16119;SDS011;12670;53.502;10.252;2023-08-07T08:42:21;17.90;;;3.80;;
16119;SDS011;12670;53.502;10.252;2023-08-07T08:45:26;14.07;;;3.20;;
16119;SDS011;12670;53.502;10.252;2023-08-07T08:48:29;13.63;;;3.40;;
16119;SDS011;12670;53.502;10.252;2023-08-07T08:51:36;12.50;;;3.20;;
16119;SDS011;12670;53.502;10.252;2023-08-07T08:54:41;13.53;;;3.00;;
16119;SDS011;12670;53.502;10.252;2023-08-07T08:57:44;12.43;;;3.27;;
16119;SDS011;12670;53.502;10.252;2023-08-07T09:00:49;13.23;;;3.40;;
16119;SDS011;12670;53.502;10.252;2023-08-07T09:03:53;11.33;;;3.10;;
16119;SDS011;12670;53.502;10.252;2023-08-07T09:06:56;15.77;;;3.37;;
16119;SDS011;12670;53.502;10.252;2023-08-07T09:09:59;18.83;;;3.67;;
16119;SDS011;12670;53.502;10.252;2023-08-07T09:13:04;18.27;;;3.67;;
16119;SDS011;12670;53.502;10.252;2023-08-07T09:16:12;14.63;;;3.20;;
16119;SDS011;12670;53.502;10.252;2023-08-07T09:19:16;17.37;;;3.40;;
16119;SDS011;12670;53.502;10.252;2023-08-07T09:22:19;16.90;;;3.60;;
16119;SDS011;12670;53.502;10.252;2023-08-07T09:25:28;14.53;;;3.23;;
16119;SDS011;12670;53.502;10.252;2023-08-07T09:28:32;21.07;;;3.93;;
16119;SDS011;12670;53.502;10.252;2023-08-07T09:31:37;13.07;;;2.70;;
16119;SDS011;12670;53.502;10.252;2023-08-07T09:34:40;11.90;;;2.70;;
16119;SDS011;12670;53.502;10.252;2023-08-07T09:37:43;19.80;;;3.60;;
16119;SDS011;12670;53.502;10.252;2023-08-07T09:40:45;13.27;;;2.97;;
16119;SDS011;12670;53.502;10.252;2023-08-07T09:43:48;10.60;;;2.67;;
16119;SDS011;12670;53.502;10.252;2023-08-07T09:46:52;11.80;;;2.70;;
16119;SDS011;12670;53.502;10.252;2023-08-07T09:49:55;11.23;;;3.03;;
16119;SDS011;12670;53.502;10.252;2023-08-07T09:52:58;12.00;;;2.93;;
16119;SDS011;12670;53.502;10.252;2023-08-07T09:56:01;14.27;;;3.03;;
16119;SDS011;12670;53.502;10.252;2023-08-07T09:59:04;13.10;;;3.10;;
16119;SDS011;12670;53.502;10.252;2023-08-07T10:02:08;12.40;;;3.00;;
16119;SDS011;12670;53.502;10.252;2023-08-07T10:05:13;11.47;;;2.50;;
16119;SDS011;12670;53.502;10.252;2023-08-07T10:08:15;10.07;;;2.70;;
16119;SDS011;12670;53.502;10.252;2023-08-07T10:11:18;10.80;;;2.70;;
16119;SDS011;12670;53.502;10.252;2023-08-07T10:14:22;13.30;;;2.73;;
16119;SDS011;12670;53.502;10.252;2023-08-07T10:17:28;10.83;;;2.77;;
16119;SDS011;12670;53.502;10.252;2023-08-07T10:20:32;11.60;;;2.93;;
16119;SDS011;12670;53.502;10.252;2023-08-07T10:23:35;10.70;;;2.90;;
16119;SDS011;12670;53.502;10.252;2023-08-07T10:26:39;13.50;;;2.97;;
16119;SDS011;12670;53.502;10.252;2023-08-07T10:29:45;13.97;;;3.73;;
16119;SDS011;12670;53.502;10.252;2023-08-07T10:32:51;14.47;;;2.93;;
16119;SDS011;12670;53.502;10.252;2023-08-07T10:35:54;12.40;;;2.80;;
16119;SDS011;12670;53.502;10.252;2023-08-07T10:39:07;10.73;;;2.50;;
16119;SDS011;12670;53.502;10.252;2023-08-07T10:42:10;9.63;;;2.70;;
16119;SDS011;12670;53.502;10.252;2023-08-07T10:45:15;6.97;;;2.42;;
16119;SDS011;12670;53.502;10.252;2023-08-07T10:48:20;12.10;;;2.60;;
16119;SDS011;12670;53.502;10.252;2023-08-07T10:51:27;12.53;;;2.83;;
16119;SDS011;12670;53.502;10.252;2023-08-07T10:54:36;11.27;;;2.60;;
16119;SDS011;12670;53.502;10.252;2023-08-07T10:57:44;11.10;;;2.30;;
16119;SDS011;12670;53.502;10.252;2023-08-07T11:00:49;15.03;;;2.87;;
16119;SDS011;12670;53.502;10.252;2023-08-07T11:03:53;16.60;;;2.80;;
16119;SDS011;12670;53.502;10.252;2023-08-07T11:06:57;20.57;;;3.27;;
16119;SDS011;12670;53.502;10.252;2023-08-07T11:10:00;16.70;;;3.07;;
16119;SDS011;12670;53.502;10.252;2023-08-07T11:13:03;11.07;;;2.53;;
16119;SDS011;12670;53.502;10.252;2023-08-07T11:16:06;10.30;;;2.80;;
16119;SDS011;12670;53.502;10.252;2023-08-07T11:19:11;12.67;;;2.83;;
16119;SDS011;12670;53.502;10.252;2023-08-07T11:22:15;5.87;;;1.87;;
16119;SDS011;12670;53.502;10.252;2023-08-07T11:25:18;13.40;;;2.50;;
16119;SDS011;12670;53.502;10.252;2023-08-07T11:28:21;12.07;;;2.63;;
16119;SDS011;12670;53.502;10.252;2023-08-07T11:31:24;9.77;;;2.50;;
16119;SDS011;12670;53.502;10.252;2023-08-07T11:34:30;10.50;;;1.87;;
16119;SDS011;12670;53.502;10.252;2023-08-07T11:37:33;7.93;;;2.20;;
16119;SDS011;12670;53.502;10.252;2023-08-07T11:40:36;8.83;;;1.90;;
16119;SDS011;12670;53.502;10.252;2023-08-07T11:43:39;9.87;;;1.90;;
16119;SDS011;12670;53.502;10.252;2023-08-07T11:46:42;8.30;;;2.10;;
16119;SDS011;12670;53.502;10.252;2023-08-07T11:49:47;7.70;;;1.80;;
16119;SDS011;12670;53.502;10.252;2023-08-07T11:52:50;9.17;;;1.83;;
16119;SDS011;12670;53.502;10.252;2023-08-07T11:55:52;7.10;;;1.93;;
16119;SDS011;12670;53.502;10.252;2023-08-07T11:58:56;14.23;;;2.63;;
16119;SDS011;12670;53.502;10.252;2023-08-07T12:02:08;12.77;;;2.93;;
16119;SDS011;12670;53.502;10.252;2023-08-07T12:05:13;18.63;;;2.70;;
16119;SDS011;12670;53.502;10.252;2023-08-07T12:08:16;6.13;;;2.00;;
16119;SDS011;12670;53.502;10.252;2023-08-07T12:11:19;13.20;;;2.67;;
16119;SDS011;12670;53.502;10.252;2023-08-07T12:14:22;8.43;;;2.20;;
16119;SDS011;12670;53.502;10.252;2023-08-07T12:17:25;19.47;;;2.40;;
16119;SDS011;12670;53.502;10.252;2023-08-07T12:20:30;7.57;;;2.40;;
16119;SDS011;12670;53.502;10.252;2023-08-07T12:23:33;12.00;;;2.70;;
16119;SDS011;12670;53.502;10.252;2023-08-07T12:26:37;9.63;;;2.53;;
16119;SDS011;12670;53.502;10.252;2023-08-07T12:29:39;12.07;;;3.17;;
16119;SDS011;12670;53.502;10.252;2023-08-07T12:32:42;9.37;;;1.80;;
16119;SDS011;12670;53.502;10.252;2023-08-07T12:35:46;10.63;;;2.00;;
16119;SDS011;12670;53.502;10.252;2023-08-07T12:38:49;12.40;;;2.20;;
16119;SDS011;12670;53.502;10.252;2023-08-07T12:41:51;11.53;;;1.73;;
16119;SDS011;12670;53.502;10.252;2023-08-07T12:44:57;11.10;;;2.20;;
16119;SDS011;12670;53.502;10.252;2023-08-07T12:48:00;9.23;;;2.60;;
16119;SDS011;12670;53.502;10.252;2023-08-07T12:51:05;8.90;;;2.27;;
16119;SDS011;12670;53.502;10.252;2023-08-07T12:54:07;14.30;;;3.10;;
16119;SDS011;12670;53.502;10.252;2023-08-07T12:57:10;16.93;;;2.93;;
16119;SDS011;12670;53.502;10.252;2023-08-07T13:00:13;9.50;;;2.80;;
16119;SDS011;12670;53.502;10.252;2023-08-07T13:03:16;11.53;;;2.67;;
16119;SDS011;12670;53.502;10.252;2023-08-07T13:06:20;8.57;;;2.37;;
16119;SDS011;12670;53.502;10.252;2023-08-07T13:09:23;9.97;;;2.73;;
16119;SDS011;12670;53.502;10.252;2023-08-07T13:12:26;7.83;;;2.60;;
16119;SDS011;12670;53.502;10.252;2023-08-07T13:15:28;15.73;;;2.90;;
16119;SDS011;12670;53.502;10.252;2023-08-07T13:18:31;11.37;;;2.93;;
16119;SDS011;12670;53.502;10.252;2023-08-07T13:21:35;8.30;;;2.27;;
16119;SDS011;12670;53.502;10.252;2023-08-07T13:24:38;14.53;;;2.93;;
16119;SDS011;12670;53.502;10.252;2023-08-07T13:27:40;12.60;;;2.53;;
16119;SDS011;12670;53.502;10.252;2023-08-07T13:30:43;9.07;;;2.17;;
16119;SDS011;12670;53.502;10.252;2023-08-07T13:33:46;9.97;;;2.50;;
16119;SDS011;12670;53.502;10.252;2023-08-07T13:36:50;13.23;;;2.50;;
16119;SDS011;12670;53.502;10.252;2023-08-07T13:39:52;14.70;;;2.73;;
16119;SDS011;12670;53.502;10.252;2023-08-07T13:42:56;7.50;;;2.07;;
16119;SDS011;12670;53.502;10.252;2023-08-07T13:46:00;9.17;;;2.60;;
16119;SDS011;12670;53.502;10.252;2023-08-07T13:49:02;7.77;;;2.23;;
16119;SDS011;12670;53.502;10.252;2023-08-07T13:52:07;10.83;;;2.83;;
16119;SDS011;12670;53.502;10.252;2023-08-07T13:55:09;14.17;;;2.77;;
16119;SDS011;12670;53.502;10.252;2023-08-07T13:58:12;14.93;;;3.07;;
16119;SDS011;12670;53.502;10.252;2023-08-07T14:01:17;16.20;;;3.53;;
16119;SDS011;12670;53.502;10.252;2023-08-07T14:04:20;12.07;;;3.00;;
16119;SDS011;12670;53.502;10.252;2023-08-07T14:07:24;10.23;;;2.93;;
16119;SDS011;12670;53.502;10.252;2023-08-07T14:10:26;10.40;;;2.60;;
16119;SDS011;12670;53.502;10.252;2023-08-07T14:13:29;12.63;;;2.57;;
16119;SDS011;12670;53.502;10.252;2023-08-07T14:16:32;14.43;;;3.03;;
16119;SDS011;12670;53.502;10.252;2023-08-07T14:19:37;9.60;;;2.20;;
16119;SDS011;12670;53.502;10.252;2023-08-07T14:22:41;8.77;;;2.80;;
16119;SDS011;12670;53.502;10.252;2023-08-07T14:25:44;10.60;;;2.80;;
16119;SDS011;12670;53.502;10.252;2023-08-07T14:28:49;9.73;;;2.20;;
16119;SDS011;12670;53.502;10.252;2023-08-07T14:31:52;11.33;;;2.50;;
16119;SDS011;12670;53.502;10.252;2023-08-07T14:34:55;10.60;;;2.50;;
16119;SDS011;12670;53.502;10.252;2023-08-07T14:37:59;11.50;;;2.30;;
16119;SDS011;12670;53.502;10.252;2023-08-07T14:41:01;16.37;;;3.50;;
16119;SDS011;12670;53.502;10.252;2023-08-07T14:44:04;9.93;;;3.13;;
16119;SDS011;12670;53.502;10.252;2023-08-07T14:47:07;10.63;;;2.93;;
16119;SDS011;12670;53.502;10.252;2023-08-07T14:50:09;10.07;;;2.33;;
16119;SDS011;12670;53.502;10.252;2023-08-07T14:53:13;10.10;;;2.53;;
16119;SDS011;12670;53.502;10.252;2023-08-07T14:56:16;10.23;;;3.00;;
16119;SDS011;12670;53.502;10.252;2023-08-07T14:59:19;9.00;;;2.70;;
16119;SDS011;12670;53.502;10.252;2023-08-07T15:02:22;9.47;;;2.60;;
16119;SDS011;12670;53.502;10.252;2023-08-07T15:05:24;14.63;;;3.57;;
16119;SDS011;12670;53.502;10.252;2023-08-07T15:08:28;13.03;;;3.00;;
16119;SDS011;12670;53.502;10.252;2023-08-07T15:11:31;13.47;;;3.03;;
16119;SDS011;12670;53.502;10.252;2023-08-07T15:14:34;16.43;;;3.33;;
16119;SDS011;12670;53.502;10.252;2023-08-07T15:17:37;13.77;;;3.20;;
16119;SDS011;12670;53.502;10.252;2023-08-07T15:20:40;10.60;;;3.07;;
16119;SDS011;12670;53.502;10.252;2023-08-07T15:23:44;14.97;;;3.07;;
16119;SDS011;12670;53.502;10.252;2023-08-07T15:26:46;13.27;;;3.00;;
16119;SDS011;12670;53.502;10.252;2023-08-07T15:29:49;12.47;;;2.83;;
16119;SDS011;12670;53.502;10.252;2023-08-07T15:32:52;14.23;;;3.60;;
16119;SDS011;12670;53.502;10.252;2023-08-07T15:35:54;15.97;;;3.37;;
16119;SDS011;12670;53.502;10.252;2023-08-07T15:38:58;12.03;;;3.40;;
16119;SDS011;12670;53.502;10.252;2023-08-07T15:42:01;12.40;;;2.77;;
16119;SDS011;12670;53.502;10.252;2023-08-07T15:45:04;15.10;;;5.80;;
16119;SDS011;12670;53.502;10.252;2023-08-07T15:48:08;9.33;;;3.60;;
16119;SDS011;12670;53.502;10.252;2023-08-07T15:51:11;13.50;;;3.30;;
16119;SDS011;12670;53.502;10.252;2023-08-07T15:54:15;13.33;;;4.17;;
16119;SDS011;12670;53.502;10.252;2023-08-07T15:57:17;14.27;;;3.57;;
16119;SDS011;12670;53.502;10.252;2023-08-07T16:00:20;20.50;;;6.87;;
16119;SDS011;12670;53.502;10.252;2023-08-07T16:03:23;14.73;;;3.93;;
16119;SDS011;12670;53.502;10.252;2023-08-07T16:06:26;11.63;;;3.30;;
16119;SDS011;12670;53.502;10.252;2023-08-07T16:09:30;10.67;;;3.10;;
16119;SDS011;12670;53.502;10.252;2023-08-07T16:12:33;12.97;;;3.37;;
16119;SDS011;12670;53.502;10.252;2023-08-07T16:15:35;24.53;;;7.33;;
16119;SDS011;12670;53.502;10.252;2023-08-07T16:18:38;22.00;;;6.23;;
16119;SDS011;12670;53.502;10.252;2023-08-07T16:21:42;11.33;;;3.70;;
16119;SDS011;12670;53.502;10.252;2023-08-07T16:24:46;12.87;;;3.87;;
16119;SDS011;12670;53.502;10.252;2023-08-07T16:27:49;13.10;;;3.40;;
16119;SDS011;12670;53.502;10.252;2023-08-07T16:30:52;11.60;;;2.80;;
16119;SDS011;12670;53.502;10.252;2023-08-07T16:33:55;13.03;;;3.37;;
16119;SDS011;12670;53.502;10.252;2023-08-07T16:36:57;12.40;;;3.10;;
16119;SDS011;12670;53.502;10.252;2023-08-07T16:40:02;13.83;;;3.30;;
16119;SDS011;12670;53.502;10.252;2023-08-07T16:43:06;11.57;;;2.97;;
16119;SDS011;12670;53.502;10.252;2023-08-07T16:46:09;16.43;;;4.40;;
16119;SDS011;12670;53.502;10.252;2023-08-07T16:49:11;12.73;;;4.00;;
16119;SDS011;12670;53.502;10.252;2023-08-07T16:52:14;23.53;;;5.67;;
16119;SDS011;12670;53.502;10.252;2023-08-07T16:55:18;17.20;;;3.60;;
16119;SDS011;12670;53.502;10.252;2023-08-07T16:58:21;13.73;;;4.27;;
16119;SDS011;12670;53.502;10.252;2023-08-07T17:01:24;12.87;;;3.53;;
16119;SDS011;12670;53.502;10.252;2023-08-07T17:04:27;17.73;;;4.73;;
16119;SDS011;12670;53.502;10.252;2023-08-07T17:07:31;22.30;;;4.23;;
16119;SDS011;12670;53.502;10.252;2023-08-07T17:10:35;13.93;;;3.53;;
16119;SDS011;12670;53.502;10.252;2023-08-07T17:13:37;13.97;;;3.20;;
16119;SDS011;12670;53.502;10.252;2023-08-07T17:16:40;16.00;;;3.67;;
16119;SDS011;12670;53.502;10.252;2023-08-07T17:19:42;17.87;;;4.67;;
16119;SDS011;12670;53.502;10.252;2023-08-07T17:22:45;11.97;;;3.10;;
16119;SDS011;12670;53.502;10.252;2023-08-07T17:25:49;17.83;;;3.50;;
16119;SDS011;12670;53.502;10.252;2023-08-07T17:28:52;13.73;;;3.47;;
16119;SDS011;12670;53.502;10.252;2023-08-07T17:31:58;18.33;;;3.17;;
16119;SDS011;12670;53.502;10.252;2023-08-07T17:35:00;9.20;;;2.73;;
16119;SDS011;12670;53.502;10.252;2023-08-07T17:38:03;13.10;;;3.27;;
16119;SDS011;12670;53.502;10.252;2023-08-07T17:41:07;13.50;;;3.47;;
16119;SDS011;12670;53.502;10.252;2023-08-07T17:44:10;12.37;;;2.93;;
16119;SDS011;12670;53.502;10.252;2023-08-07T17:47:12;10.67;;;3.00;;
16119;SDS011;12670;53.502;10.252;2023-08-07T17:50:15;11.37;;;3.30;;
16119;SDS011;12670;53.502;10.252;2023-08-07T17:53:18;12.40;;;2.83;;
16119;SDS011;12670;53.502;10.252;2023-08-07T17:56:22;10.60;;;3.17;;
16119;SDS011;12670;53.502;10.252;2023-08-07T17:59:25;9.43;;;2.50;;
16119;SDS011;12670;53.502;10.252;2023-08-07T18:02:28;8.97;;;2.70;;